Coral Coast — WDF5120 — position and weather

sailwx.info

Track history (hours):
 
Tides and Currents Weather Stations Pressure Air Temp Water Temp Dewpoint Dewpoint Depression Visibility Wind Speed Wind Dir Waves Ship Positions

Coral Coast

Owner: Dann MarineTowing, LC., Chesapeake City, MD. More information available from US FCC via Universal Licensing System and Coast Guard Vessel Documentation Center.

Last reported at 2016-Jan-31 07:28 UTC. Time now 2016-Feb-13 23:49 UTC.
Position N 25°27' W 079°56'.
Warning: this ship's position is 13 days out of date.

Length 70 m; draft 5.3 m.

Type: Tug. MMSI: 367459570.

Date/timePositionNaut miles runAvg speedWind from/ knotsBaromVisibWave heightAir tempDewpointWater temp
2016-Jan-31 07:28N 25°27' W 079°56'5 6.1
2016-Jan-31 06:34N 25°32' W 079°59'7 6.8
2016-Jan-31 05:33N 25°38' W 080°01'7 6.6
2016-Jan-31 04:34N 25°45' W 080°02'7 6.6
2016-Jan-31 03:33N 25°51' W 080°03'6 6.5
2016-Jan-31 02:33N 25°58' W 080°03'6 6.4
2016-Jan-31 01:33N 26°04' W 080°03'6 5.7
2016-Jan-31 00:34N 26°10' W 080°02'1 0.5
2016-Jan-30 23:33N 26°10' W 080°03'5 4.8
2016-Jan-30 22:34N 26°05' W 080°05'3 2.9
2016-Jan-30 21:33N 26°08' W 080°04'4 4.3
2016-Jan-30 20:34N 26°13' W 080°03'6 5.7
2016-Jan-30 19:34N 26°18' W 080°02'6 6.3
2016-Jan-30 18:33N 26°25' W 080°01'6 5.7
2016-Jan-30 17:33N 26°30' W 079°60'5 5.4
2016-Jan-30 16:33N 26°35' W 079°59'14 6.0
2016-Jan-30 14:11N 26°50' W 079°58'4 6.3
2016-Jan-30 13:33N 26°53' W 079°59'8 8.2
2016-Jan-30 12:34N 27°01' W 080°02'  
2016-Jan-26 04:23N 27°04' W 080°03'7 8.2
2016-Jan-26 03:33N 26°58' W 079°60'9 9.6
2016-Jan-26 02:33N 26°48' W 079°58'10 9.9
2016-Jan-26 01:32N 26°38' W 079°58'1010.0
2016-Jan-26 00:33N 26°28' W 079°60'10 9.5
2016-Jan-25 23:33N 26°19' W 080°02'9 9.1
2016-Jan-25 22:33N 26°10' W 080°03'10 9.8
2016-Jan-25 21:33N 26°00' W 080°03'1110.9
2016-Jan-25 20:33N 25°50' W 080°01'  
Track history (hours):
 
Tides and Currents Weather Stations Pressure Air Temp Water Temp Dewpoint Dewpoint Depression Visibility Wind Speed Wind Dir Waves Ship Positions

Coral Coast

Owner: Dann MarineTowing, LC., Chesapeake City, MD. More information available from US FCC via Universal Licensing System and Coast Guard Vessel Documentation Center.

Last reported at 2016-Jan-31 07:28 UTC. Time now 2016-Feb-13 23:49 UTC.
Position N 25°27' W 079°56'.
Warning: this ship's position is 13 days out of date.

Length 70 m; draft 5.3 m.

Type: Tug. MMSI: 367459570.

Date/timePositionNaut miles runAvg speedWind from/ knotsBaromVisibWave heightAir tempDewpointWater temp
2016-Jan-31 07:28N 25°27' W 079°56'5 6.1
2016-Jan-31 06:34N 25°32' W 079°59'7 6.8
2016-Jan-31 05:33N 25°38' W 080°01'7 6.6
2016-Jan-31 04:34N 25°45' W 080°02'7 6.6
2016-Jan-31 03:33N 25°51' W 080°03'6 6.5
2016-Jan-31 02:33N 25°58' W 080°03'6 6.4
2016-Jan-31 01:33N 26°04' W 080°03'6 5.7
2016-Jan-31 00:34N 26°10' W 080°02'1 0.5
2016-Jan-30 23:33N 26°10' W 080°03'5 4.8
2016-Jan-30 22:34N 26°05' W 080°05'3 2.9
2016-Jan-30 21:33N 26°08' W 080°04'4 4.3
2016-Jan-30 20:34N 26°13' W 080°03'6 5.7
2016-Jan-30 19:34N 26°18' W 080°02'6 6.3
2016-Jan-30 18:33N 26°25' W 080°01'6 5.7
2016-Jan-30 17:33N 26°30' W 079°60'5 5.4
2016-Jan-30 16:33N 26°35' W 079°59'14 6.0
2016-Jan-30 14:11N 26°50' W 079°58'4 6.3
2016-Jan-30 13:33N 26°53' W 079°59'8 8.2
2016-Jan-30 12:34N 27°01' W 080°02'  
2016-Jan-26 04:23N 27°04' W 080°03'7 8.2
2016-Jan-26 03:33N 26°58' W 079°60'9 9.6
2016-Jan-26 02:33N 26°48' W 079°58'10 9.9
2016-Jan-26 01:32N 26°38' W 079°58'1010.0
2016-Jan-26 00:33N 26°28' W 079°60'10 9.5
2016-Jan-25 23:33N 26°19' W 080°02'9 9.1
2016-Jan-25 22:33N 26°10' W 080°03'10 9.8
2016-Jan-25 21:33N 26°00' W 080°03'1110.9
2016-Jan-25 20:33N 25°50' W 080°01'  

Dump ship's entire track history